Pagina principale
METAR-TAF:

METAR-TAF

Aeroporti :

Aeroporto di Pola

Pola, Croazia

latitudine: 44-54N, longitudine: 013-55E, altezza: 63 m

Osservazione

Il bollettino è stato emesso 32 minuti fa, alle 03:30 UTC
Vento 4 kt da nord-est
Temperature 3°C
Umidità 65%
Pressione 1022 hPa
Visibilità 10 km o più
nessuna nube inferiore a 1500 m e nessun cumulonembo

METAR: LDPL 270330Z 05004KT CAVOK 03/M03 Q1022

Ora: 05:02 (04:02 UTC)

Previsione

Il bollettino è stato emesso 4 ore e 37 minuti fa, alle 23:25 UTC
Previsione valida dal 27 alle 00 UTC al 28 alle 00 UTC
Vento 2 kt da direzioni variabili
Visibilità 10 km o più
nessuna nube inferiore a 1500 m e nessun cumulonembo
Evoluzione graduale
dal 27 alle 04 UTC al 27 alle 06 UTC
Vento 20 kt da est/nord-est con raffiche fino a 30 kt
Temporaneamente
dal 27 alle 06 UTC al 28 alle 00 UTC
Vento 15 kt da est/nord-est

TAF: LDPL 262325Z 2700/2800 VRB02KT CAVOK TX15/2713Z TN03/2703Z BECMG 2704/2706 06020G30KT TEMPO 2706/2800 07015KT

Osservazioni e previsioni meteorologiche di più di 4000 aeroporti (messaggi METAR e TAF).

Le stazioni disponibili sono rappresentate dai dischi gialli e rossi sulla carta.

Puntare il mouse per vedere il nome della stazione.

Clicca sopra per visualizzare le osservazioni e previsioni meteorologiche.

Per cambiare la mappa : fare clic sui pulsanti verdi con una croce nera per ingrandire, il pulsante verde con un trattino per diminuire, o sulla freccia verde per le mappe adiacenti.


METAR-TAF: